sensor_id;sensor_type;location;lat;lon;timestamp;P1;durP1;ratioP1;P2;durP2;ratioP2
7169;SDS011;3626;42.656;23.312;2023-02-26T00:00:05;13.67;;;4.73;;
7169;SDS011;3626;42.656;23.312;2023-02-26T00:00:16;14.53;;;4.60;;
7169;SDS011;3626;42.656;23.312;2023-02-26T00:00:25;13.06;;;4.43;;
7169;SDS011;3626;42.656;23.312;2023-02-26T00:00:31;13.73;;;4.47;;
7169;SDS011;3626;42.656;23.312;2023-02-26T00:00:36;12.85;;;4.22;;
7169;SDS011;3626;42.656;23.312;2023-02-26T00:00:42;12.85;;;4.22;;
7169;SDS011;3626;42.656;23.312;2023-02-26T00:00:48;12.45;;;4.30;;
7169;SDS011;3626;42.656;23.312;2023-02-26T00:00:54;12.57;;;4.20;;
7169;SDS011;3626;42.656;23.312;2023-02-26T00:01:01;12.82;;;4.06;;
7169;SDS011;3626;42.656;23.312;2023-02-26T00:01:11;13.48;;;4.00;;
7169;SDS011;3626;42.656;23.312;2023-02-26T00:01:18;12.25;;;4.10;;
7169;SDS011;3626;42.656;23.312;2023-02-26T00:01:26;12.67;;;3.90;;
7169;SDS011;3626;42.656;23.312;2023-02-26T00:01:33;12.73;;;3.87;;
7169;SDS011;3626;42.656;23.312;2023-02-26T00:01:39;13.40;;;4.07;;
7169;SDS011;3626;42.656;23.312;2023-02-26T00:01:45;13.90;;;3.95;;
7169;SDS011;3626;42.656;23.312;2023-02-26T00:01:51;15.32;;;3.90;;
7169;SDS011;3626;42.656;23.312;2023-02-26T00:02:06;14.05;;;3.86;;
7169;SDS011;3626;42.656;23.312;2023-02-26T00:02:13;12.43;;;3.77;;
7169;SDS011;3626;42.656;23.312;2023-02-26T00:02:19;11.45;;;3.80;;
7169;SDS011;3626;42.656;23.312;2023-02-26T00:02:25;11.90;;;4.05;;
7169;SDS011;3626;42.656;23.312;2023-02-26T00:02:31;13.57;;;4.10;;
7169;SDS011;3626;42.656;23.312;2023-02-26T00:02:37;14.50;;;3.90;;
7169;SDS011;3626;42.656;23.312;2023-02-26T00:02:43;15.07;;;3.90;;
7169;SDS011;3626;42.656;23.312;2023-02-26T00:02:54;13.38;;;3.90;;
7169;SDS011;3626;42.656;23.312;2023-02-26T00:03:00;13.46;;;3.98;;
7169;SDS011;3626;42.656;23.312;2023-02-26T00:03:05;15.10;;;4.00;;
7169;SDS011;3626;42.656;23.312;2023-02-26T00:03:11;15.73;;;3.97;;
7169;SDS011;3626;42.656;23.312;2023-02-26T00:03:17;16.27;;;3.90;;
7169;SDS011;3626;42.656;23.312;2023-02-26T00:03:23;18.17;;;4.00;;
7169;SDS011;3626;42.656;23.312;2023-02-26T00:03:28;18.70;;;4.07;;
7169;SDS011;3626;42.656;23.312;2023-02-26T00:03:34;16.75;;;4.25;;
7169;SDS011;3626;42.656;23.312;2023-02-26T00:03:40;16.23;;;4.40;;
7169;SDS011;3626;42.656;23.312;2023-02-26T00:03:47;15.93;;;4.23;;
7169;SDS011;3626;42.656;23.312;2023-02-26T00:03:54;16.13;;;4.23;;
7169;SDS011;3626;42.656;23.312;2023-02-26T00:04:02;16.28;;;4.30;;
7169;SDS011;3626;42.656;23.312;2023-02-26T00:04:09;15.03;;;4.38;;
7169;SDS011;3626;42.656;23.312;2023-02-26T00:04:15;15.13;;;4.50;;
7169;SDS011;3626;42.656;23.312;2023-02-26T00:04:21;13.65;;;4.25;;
7169;SDS011;3626;42.656;23.312;2023-02-26T00:04:27;13.83;;;3.87;;
7169;SDS011;3626;42.656;23.312;2023-02-26T00:04:33;13.40;;;3.70;;
7169;SDS011;3626;42.656;23.312;2023-02-26T00:04:40;13.35;;;3.63;;
7169;SDS011;3626;42.656;23.312;2023-02-26T00:04:46;13.03;;;3.87;;
7169;SDS011;3626;42.656;23.312;2023-02-26T00:04:52;13.35;;;4.13;;
7169;SDS011;3626;42.656;23.312;2023-02-26T00:04:58;14.17;;;4.17;;
7169;SDS011;3626;42.656;23.312;2023-02-26T00:05:04;14.23;;;4.05;;
7169;SDS011;3626;42.656;23.312;2023-02-26T00:05:10;13.74;;;4.02;;
7169;SDS011;3626;42.656;23.312;2023-02-26T00:05:16;13.93;;;3.83;;
7169;SDS011;3626;42.656;23.312;2023-02-26T00:05:22;13.63;;;3.97;;
7169;SDS011;3626;42.656;23.312;2023-02-26T00:05:28;10.68;;;4.00;;
7169;SDS011;3626;42.656;23.312;2023-02-26T00:05:34;11.13;;;3.90;;
7169;SDS011;3626;42.656;23.312;2023-02-26T00:05:40;12.08;;;3.90;;
7169;SDS011;3626;42.656;23.312;2023-02-26T00:05:47;12.77;;;3.90;;
7169;SDS011;3626;42.656;23.312;2023-02-26T00:05:52;12.50;;;3.75;;
7169;SDS011;3626;42.656;23.312;2023-02-26T00:06:00;13.77;;;3.83;;
7169;SDS011;3626;42.656;23.312;2023-02-26T00:06:05;14.76;;;3.90;;
7169;SDS011;3626;42.656;23.312;2023-02-26T00:06:12;15.90;;;3.90;;
7169;SDS011;3626;42.656;23.312;2023-02-26T00:06:17;17.17;;;4.05;;
7169;SDS011;3626;42.656;23.312;2023-02-26T00:06:24;18.73;;;4.00;;
7169;SDS011;3626;42.656;23.312;2023-02-26T00:06:30;19.62;;;4.08;;
7169;SDS011;3626;42.656;23.312;2023-02-26T00:06:38;19.20;;;4.00;;
7169;SDS011;3626;42.656;23.312;2023-02-26T00:06:56;19.86;;;3.86;;
7169;SDS011;3626;42.656;23.312;2023-02-26T00:07:02;19.00;;;3.70;;
7169;SDS011;3626;42.656;23.312;2023-02-26T00:07:10;18.53;;;3.70;;
7169;SDS011;3626;42.656;23.312;2023-02-26T00:07:15;17.65;;;3.67;;
7169;SDS011;3626;42.656;23.312;2023-02-26T00:07:21;16.58;;;3.60;;
7169;SDS011;3626;42.656;23.312;2023-02-26T00:07:27;16.97;;;3.77;;
7169;SDS011;3626;42.656;23.312;2023-02-26T00:07:33;15.40;;;3.80;;
7169;SDS011;3626;42.656;23.312;2023-02-26T00:07:39;14.65;;;3.80;;
7169;SDS011;3626;42.656;23.312;2023-02-26T00:07:45;13.10;;;3.73;;
7169;SDS011;3626;42.656;23.312;2023-02-26T00:07:51;11.23;;;3.90;;
7169;SDS011;3626;42.656;23.312;2023-02-26T00:07:57;12.33;;;4.00;;
7169;SDS011;3626;42.656;23.312;2023-02-26T00:08:03;12.97;;;4.00;;
7169;SDS011;3626;42.656;23.312;2023-02-26T00:08:10;12.53;;;4.00;;
7169;SDS011;3626;42.656;23.312;2023-02-26T00:08:15;13.68;;;4.18;;
7169;SDS011;3626;42.656;23.312;2023-02-26T00:08:21;12.55;;;4.30;;
7169;SDS011;3626;42.656;23.312;2023-02-26T00:08:27;13.82;;;4.25;;
7169;SDS011;3626;42.656;23.312;2023-02-26T00:08:35;14.58;;;4.47;;
7169;SDS011;3626;42.656;23.312;2023-02-26T00:08:41;15.53;;;4.70;;
7169;SDS011;3626;42.656;23.312;2023-02-26T00:08:48;15.50;;;4.67;;
7169;SDS011;3626;42.656;23.312;2023-02-26T00:08:54;15.10;;;4.50;;
7169;SDS011;3626;42.656;23.312;2023-02-26T00:08:59;14.15;;;4.45;;
7169;SDS011;3626;42.656;23.312;2023-02-26T00:09:06;14.07;;;4.40;;
7169;SDS011;3626;42.656;23.312;2023-02-26T00:09:11;17.55;;;4.45;;
7169;SDS011;3626;42.656;23.312;2023-02-26T00:09:17;20.70;;;4.40;;
7169;SDS011;3626;42.656;23.312;2023-02-26T00:09:23;21.53;;;4.30;;
7169;SDS011;3626;42.656;23.312;2023-02-26T00:09:29;20.52;;;4.18;;
7169;SDS011;3626;42.656;23.312;2023-02-26T00:09:35;19.30;;;3.85;;
7169;SDS011;3626;42.656;23.312;2023-02-26T00:09:41;18.80;;;3.70;;
7169;SDS011;3626;42.656;23.312;2023-02-26T00:09:47;20.25;;;3.83;;
7169;SDS011;3626;42.656;23.312;2023-02-26T00:09:52;21.52;;;3.90;;
7169;SDS011;3626;42.656;23.312;2023-02-26T00:09:58;21.50;;;4.05;;
7169;SDS011;3626;42.656;23.312;2023-02-26T00:10:06;21.12;;;4.28;;
7169;SDS011;3626;42.656;23.312;2023-02-26T00:10:14;16.70;;;4.33;;
7169;SDS011;3626;42.656;23.312;2023-02-26T00:10:20;14.70;;;4.43;;
7169;SDS011;3626;42.656;23.312;2023-02-26T00:10:26;13.07;;;4.37;;
7169;SDS011;3626;42.656;23.312;2023-02-26T00:10:32;13.70;;;4.40;;
7169;SDS011;3626;42.656;23.312;2023-02-26T00:10:37;14.65;;;4.50;;
7169;SDS011;3626;42.656;23.312;2023-02-26T00:10:43;13.63;;;4.45;;
7169;SDS011;3626;42.656;23.312;2023-02-26T00:10:49;13.02;;;4.25;;
7169;SDS011;3626;42.656;23.312;2023-02-26T00:10:55;12.33;;;4.17;;
7169;SDS011;3626;42.656;23.312;2023-02-26T00:11:04;13.00;;;4.04;;
7169;SDS011;3626;42.656;23.312;2023-02-26T00:11:11;13.20;;;3.80;;
7169;SDS011;3626;42.656;23.312;2023-02-26T00:11:17;12.87;;;3.83;;
7169;SDS011;3626;42.656;23.312;2023-02-26T00:11:23;13.35;;;3.90;;
7169;SDS011;3626;42.656;23.312;2023-02-26T00:11:29;13.25;;;3.88;;
7169;SDS011;3626;42.656;23.312;2023-02-26T00:11:36;14.27;;;3.70;;
7169;SDS011;3626;42.656;23.312;2023-02-26T00:11:43;14.40;;;3.70;;
7169;SDS011;3626;42.656;23.312;2023-02-26T00:11:49;13.40;;;3.67;;
7169;SDS011;3626;42.656;23.312;2023-02-26T00:11:55;13.88;;;3.70;;
7169;SDS011;3626;42.656;23.312;2023-02-26T00:12:01;14.10;;;3.67;;
7169;SDS011;3626;42.656;23.312;2023-02-26T00:12:08;13.40;;;3.70;;
7169;SDS011;3626;42.656;23.312;2023-02-26T00:12:15;13.40;;;3.67;;
7169;SDS011;3626;42.656;23.312;2023-02-26T00:12:21;13.50;;;3.50;;
7169;SDS011;3626;42.656;23.312;2023-02-26T00:12:27;12.87;;;3.50;;
7169;SDS011;3626;42.656;23.312;2023-02-26T00:12:34;11.83;;;3.50;;
7169;SDS011;3626;42.656;23.312;2023-02-26T00:12:41;10.90;;;3.40;;
7169;SDS011;3626;42.656;23.312;2023-02-26T00:12:49;10.90;;;3.50;;
7169;SDS011;3626;42.656;23.312;2023-02-26T00:12:55;10.47;;;3.57;;
7169;SDS011;3626;42.656;23.312;2023-02-26T00:13:01;10.63;;;3.70;;
7169;SDS011;3626;42.656;23.312;2023-02-26T00:13:07;10.07;;;3.60;;
7169;SDS011;3626;42.656;23.312;2023-02-26T00:13:14;11.60;;;3.70;;
7169;SDS011;3626;42.656;23.312;2023-02-26T00:13:20;11.10;;;3.65;;
7169;SDS011;3626;42.656;23.312;2023-02-26T00:13:26;11.93;;;3.70;;
7169;SDS011;3626;42.656;23.312;2023-02-26T00:13:34;13.03;;;3.87;;
7169;SDS011;3626;42.656;23.312;2023-02-26T00:13:42;12.82;;;4.03;;
7169;SDS011;3626;42.656;23.312;2023-02-26T00:13:49;12.50;;;4.04;;
7169;SDS011;3626;42.656;23.312;2023-02-26T00:13:57;12.28;;;3.88;;
7169;SDS011;3626;42.656;23.312;2023-02-26T00:14:03;11.13;;;3.80;;
7169;SDS011;3626;42.656;23.312;2023-02-26T00:14:14;9.74;;;3.59;;
7169;SDS011;3626;42.656;23.312;2023-02-26T00:14:21;8.36;;;3.50;;
7169;SDS011;3626;42.656;23.312;2023-02-26T00:14:27;7.77;;;3.40;;
7169;SDS011;3626;42.656;23.312;2023-02-26T00:14:33;6.68;;;3.30;;
7169;SDS011;3626;42.656;23.312;2023-02-26T00:14:40;6.53;;;3.20;;
7169;SDS011;3626;42.656;23.312;2023-02-26T00:14:46;7.07;;;3.13;;
7169;SDS011;3626;42.656;23.312;2023-02-26T00:14:53;7.16;;;3.14;;
7169;SDS011;3626;42.656;23.312;2023-02-26T00:15:00;7.78;;;3.30;;
7169;SDS011;3626;42.656;23.312;2023-02-26T00:15:07;8.15;;;3.28;;
7169;SDS011;3626;42.656;23.312;2023-02-26T00:15:17;9.14;;;3.59;;
7169;SDS011;3626;42.656;23.312;2023-02-26T00:15:24;9.53;;;3.73;;
7169;SDS011;3626;42.656;23.312;2023-02-26T00:15:31;12.44;;;3.96;;
7169;SDS011;3626;42.656;23.312;2023-02-26T00:15:37;13.50;;;3.95;;
7169;SDS011;3626;42.656;23.312;2023-02-26T00:15:43;13.78;;;4.22;;
7169;SDS011;3626;42.656;23.312;2023-02-26T00:15:49;14.05;;;4.55;;
7169;SDS011;3626;42.656;23.312;2023-02-26T00:16:03;15.26;;;4.47;;
7169;SDS011;3626;42.656;23.312;2023-02-26T00:16:20;18.64;;;4.41;;
7169;SDS011;3626;42.656;23.312;2023-02-26T00:16:31;17.45;;;4.51;;
7169;SDS011;3626;42.656;23.312;2023-02-26T00:16:39;15.05;;;4.45;;
7169;SDS011;3626;42.656;23.312;2023-02-26T00:16:46;15.03;;;4.30;;
7169;SDS011;3626;42.656;23.312;2023-02-26T00:17:07;16.13;;;4.47;;
7169;SDS011;3626;42.656;23.312;2023-02-26T00:17:31;12.26;;;4.28;;
7169;SDS011;3626;42.656;23.312;2023-02-26T00:17:45;11.32;;;3.96;;
7169;SDS011;3626;42.656;23.312;2023-02-26T00:17:58;12.25;;;3.70;;
7169;SDS011;3626;42.656;23.312;2023-02-26T00:18:08;13.79;;;3.84;;
7169;SDS011;3626;42.656;23.312;2023-02-26T00:18:20;14.41;;;4.27;;
7169;SDS011;3626;42.656;23.312;2023-02-26T00:18:27;15.10;;;4.43;;
7169;SDS011;3626;42.656;23.312;2023-02-26T00:18:33;14.66;;;4.40;;
7169;SDS011;3626;42.656;23.312;2023-02-26T00:18:40;12.73;;;4.37;;
7169;SDS011;3626;42.656;23.312;2023-02-26T00:18:46;13.30;;;4.55;;
7169;SDS011;3626;42.656;23.312;2023-02-26T00:18:52;12.20;;;4.57;;
7169;SDS011;3626;42.656;23.312;2023-02-26T00:18:59;10.13;;;4.57;;
7169;SDS011;3626;42.656;23.312;2023-02-26T00:19:06;9.57;;;4.50;;
7169;SDS011;3626;42.656;23.312;2023-02-26T00:19:15;9.29;;;4.36;;
7169;SDS011;3626;42.656;23.312;2023-02-26T00:19:21;8.70;;;3.97;;
7169;SDS011;3626;42.656;23.312;2023-02-26T00:19:27;8.30;;;4.00;;
7169;SDS011;3626;42.656;23.312;2023-02-26T00:19:33;8.77;;;4.18;;
7169;SDS011;3626;42.656;23.312;2023-02-26T00:19:39;9.13;;;4.13;;
7169;SDS011;3626;42.656;23.312;2023-02-26T00:19:45;8.60;;;3.87;;
7169;SDS011;3626;42.656;23.312;2023-02-26T00:19:52;8.50;;;3.70;;
7169;SDS011;3626;42.656;23.312;2023-02-26T00:19:59;8.23;;;3.53;;
7169;SDS011;3626;42.656;23.312;2023-02-26T00:20:06;8.07;;;3.40;;
7169;SDS011;3626;42.656;23.312;2023-02-26T00:20:13;10.13;;;3.40;;
7169;SDS011;3626;42.656;23.312;2023-02-26T00:20:20;11.67;;;3.60;;
7169;SDS011;3626;42.656;23.312;2023-02-26T00:20:27;11.88;;;3.47;;
7169;SDS011;3626;42.656;23.312;2023-02-26T00:20:34;12.43;;;3.60;;
7169;SDS011;3626;42.656;23.312;2023-02-26T00:20:41;14.87;;;4.02;;
7169;SDS011;3626;42.656;23.312;2023-02-26T00:20:48;15.30;;;4.18;;
7169;SDS011;3626;42.656;23.312;2023-02-26T00:20:54;14.84;;;4.24;;
7169;SDS011;3626;42.656;23.312;2023-02-26T00:21:01;15.45;;;4.30;;
7169;SDS011;3626;42.656;23.312;2023-02-26T00:21:08;15.88;;;4.34;;
7169;SDS011;3626;42.656;23.312;2023-02-26T00:21:21;14.44;;;4.41;;
7169;SDS011;3626;42.656;23.312;2023-02-26T00:21:28;13.90;;;4.50;;
7169;SDS011;3626;42.656;23.312;2023-02-26T00:21:35;12.64;;;4.20;;
7169;SDS011;3626;42.656;23.312;2023-02-26T00:21:41;10.67;;;3.93;;
7169;SDS011;3626;42.656;23.312;2023-02-26T00:21:48;10.77;;;3.90;;
7169;SDS011;3626;42.656;23.312;2023-02-26T00:21:54;12.43;;;4.10;;
7169;SDS011;3626;42.656;23.312;2023-02-26T00:22:01;13.15;;;4.20;;
7169;SDS011;3626;42.656;23.312;2023-02-26T00:22:07;13.32;;;4.32;;
7169;SDS011;3626;42.656;23.312;2023-02-26T00:22:14;13.02;;;4.30;;
7169;SDS011;3626;42.656;23.312;2023-02-26T00:22:20;13.96;;;4.26;;
7169;SDS011;3626;42.656;23.312;2023-02-26T00:22:27;14.97;;;4.10;;
7169;SDS011;3626;42.656;23.312;2023-02-26T00:22:33;15.02;;;3.90;;
7169;SDS011;3626;42.656;23.312;2023-02-26T00:22:40;16.42;;;4.20;;
7169;SDS011;3626;42.656;23.312;2023-02-26T00:22:46;16.00;;;4.14;;
7169;SDS011;3626;42.656;23.312;2023-02-26T00:22:53;16.40;;;4.07;;
7169;SDS011;3626;42.656;23.312;2023-02-26T00:22:59;16.40;;;3.83;;
7169;SDS011;3626;42.656;23.312;2023-02-26T00:23:05;14.32;;;3.64;;
7169;SDS011;3626;42.656;23.312;2023-02-26T00:23:15;14.13;;;3.60;;
7169;SDS011;3626;42.656;23.312;2023-02-26T00:23:22;12.23;;;3.60;;
7169;SDS011;3626;42.656;23.312;2023-02-26T00:23:29;11.47;;;3.60;;
7169;SDS011;3626;42.656;23.312;2023-02-26T00:23:37;9.96;;;3.46;;
7169;SDS011;3626;42.656;23.312;2023-02-26T00:23:43;10.57;;;3.10;;
7169;SDS011;3626;42.656;23.312;2023-02-26T00:23:50;10.43;;;3.10;;
7169;SDS011;3626;42.656;23.312;2023-02-26T00:23:57;7.97;;;3.00;;
7169;SDS011;3626;42.656;23.312;2023-02-26T00:24:06;8.91;;;3.00;;
7169;SDS011;3626;42.656;23.312;2023-02-26T00:24:12;10.00;;;3.00;;
7169;SDS011;3626;42.656;23.312;2023-02-26T00:24:18;10.85;;;3.00;;
7169;SDS011;3626;42.656;23.312;2023-02-26T00:24:23;10.90;;;2.90;;
7169;SDS011;3626;42.656;23.312;2023-02-26T00:24:29;11.65;;;3.03;;
7169;SDS011;3626;42.656;23.312;2023-02-26T00:24:35;18.27;;;3.50;;
7169;SDS011;3626;42.656;23.312;2023-02-26T00:24:41;20.02;;;3.65;;
7169;SDS011;3626;42.656;23.312;2023-02-26T00:24:46;19.95;;;3.80;;
7169;SDS011;3626;42.656;23.312;2023-02-26T00:24:52;20.80;;;3.90;;
7169;SDS011;3626;42.656;23.312;2023-02-26T00:24:58;22.02;;;4.00;;
7169;SDS011;3626;42.656;23.312;2023-02-26T00:25:04;21.80;;;4.07;;
7169;SDS011;3626;42.656;23.312;2023-02-26T00:25:11;21.60;;;4.10;;
7169;SDS011;3626;42.656;23.312;2023-02-26T00:25:17;21.70;;;4.13;;
7169;SDS011;3626;42.656;23.312;2023-02-26T00:25:23;24.63;;;4.50;;
7169;SDS011;3626;42.656;23.312;2023-02-26T00:25:29;23.90;;;4.40;;
7169;SDS011;3626;42.656;23.312;2023-02-26T00:25:37;17.20;;;4.07;;
7169;SDS011;3626;42.656;23.312;2023-02-26T00:25:42;17.17;;;3.92;;
7169;SDS011;3626;42.656;23.312;2023-02-26T00:25:49;16.38;;;3.90;;
7169;SDS011;3626;42.656;23.312;2023-02-26T00:25:56;17.30;;;4.10;;
7169;SDS011;3626;42.656;23.312;2023-02-26T00:26:02;16.90;;;4.02;;
7169;SDS011;3626;42.656;23.312;2023-02-26T00:26:08;16.35;;;4.10;;
7169;SDS011;3626;42.656;23.312;2023-02-26T00:26:13;17.20;;;4.10;;
7169;SDS011;3626;42.656;23.312;2023-02-26T00:26:19;15.65;;;3.92;;
7169;SDS011;3626;42.656;23.312;2023-02-26T00:26:27;13.53;;;3.80;;
7169;SDS011;3626;42.656;23.312;2023-02-26T00:26:34;13.20;;;3.80;;
7169;SDS011;3626;42.656;23.312;2023-02-26T00:26:40;12.07;;;3.70;;
7169;SDS011;3626;42.656;23.312;2023-02-26T00:26:46;14.50;;;4.07;;
7169;SDS011;3626;42.656;23.312;2023-02-26T00:26:52;15.30;;;4.07;;
7169;SDS011;3626;42.656;23.312;2023-02-26T00:26:59;13.80;;;3.90;;
7169;SDS011;3626;42.656;23.312;2023-02-26T00:27:05;13.50;;;3.80;;
7169;SDS011;3626;42.656;23.312;2023-02-26T00:27:11;12.36;;;3.70;;
7169;SDS011;3626;42.656;23.312;2023-02-26T00:27:17;15.00;;;3.80;;
7169;SDS011;3626;42.656;23.312;2023-02-26T00:27:23;17.60;;;3.80;;
7169;SDS011;3626;42.656;23.312;2023-02-26T00:27:29;18.97;;;3.80;;
7169;SDS011;3626;42.656;23.312;2023-02-26T00:27:35;19.87;;;3.83;;
7169;SDS011;3626;42.656;23.312;2023-02-26T00:27:41;20.23;;;3.97;;
7169;SDS011;3626;42.656;23.312;2023-02-26T00:27:48;18.24;;;3.66;;
7169;SDS011;3626;42.656;23.312;2023-02-26T00:27:54;17.17;;;3.50;;
7169;SDS011;3626;42.656;23.312;2023-02-26T00:28:01;17.43;;;3.70;;
7169;SDS011;3626;42.656;23.312;2023-02-26T00:28:07;18.05;;;3.80;;
7169;SDS011;3626;42.656;23.312;2023-02-26T00:28:14;17.94;;;3.80;;
7169;SDS011;3626;42.656;23.312;2023-02-26T00:28:20;14.67;;;4.03;;
7169;SDS011;3626;42.656;23.312;2023-02-26T00:28:27;18.70;;;4.05;;
7169;SDS011;3626;42.656;23.312;2023-02-26T00:28:34;17.80;;;4.07;;
7169;SDS011;3626;42.656;23.312;2023-02-26T00:28:40;19.23;;;4.27;;
7169;SDS011;3626;42.656;23.312;2023-02-26T00:28:46;19.80;;;4.33;;
7169;SDS011;3626;42.656;23.312;2023-02-26T00:28:53;19.77;;;4.38;;
7169;SDS011;3626;42.656;23.312;2023-02-26T00:28:59;19.87;;;4.40;;
7169;SDS011;3626;42.656;23.312;2023-02-26T00:29:07;21.32;;;4.42;;
7169;SDS011;3626;42.656;23.312;2023-02-26T00:29:13;22.10;;;4.40;;
7169;SDS011;3626;42.656;23.312;2023-02-26T00:29:20;21.00;;;4.00;;
7169;SDS011;3626;42.656;23.312;2023-02-26T00:29:26;16.10;;;4.00;;
7169;SDS011;3626;42.656;23.312;2023-02-26T00:29:32;17.73;;;4.17;;
7169;SDS011;3626;42.656;23.312;2023-02-26T00:29:39;15.87;;;3.80;;
7169;SDS011;3626;42.656;23.312;2023-02-26T00:29:45;15.83;;;3.80;;
7169;SDS011;3626;42.656;23.312;2023-02-26T00:29:52;14.68;;;3.80;;
7169;SDS011;3626;42.656;23.312;2023-02-26T00:29:59;14.77;;;3.77;;
7169;SDS011;3626;42.656;23.312;2023-02-26T00:30:06;13.70;;;3.70;;
7169;SDS011;3626;42.656;23.312;2023-02-26T00:30:13;13.54;;;3.80;;
7169;SDS011;3626;42.656;23.312;2023-02-26T00:30:20;13.70;;;3.90;;
7169;SDS011;3626;42.656;23.312;2023-02-26T00:30:26;12.27;;;3.90;;
7169;SDS011;3626;42.656;23.312;2023-02-26T00:30:33;11.07;;;3.80;;
7169;SDS011;3626;42.656;23.312;2023-02-26T00:30:39;11.27;;;3.90;;
7169;SDS011;3626;42.656;23.312;2023-02-26T00:30:46;12.63;;;4.03;;
7169;SDS011;3626;42.656;23.312;2023-02-26T00:30:52;12.80;;;4.07;;
7169;SDS011;3626;42.656;23.312;2023-02-26T00:30:58;12.63;;;3.95;;
7169;SDS011;3626;42.656;23.312;2023-02-26T00:31:05;11.80;;;3.90;;
7169;SDS011;3626;42.656;23.312;2023-02-26T00:31:12;11.30;;;3.77;;
7169;SDS011;3626;42.656;23.312;2023-02-26T00:31:19;12.23;;;3.73;;
7169;SDS011;3626;42.656;23.312;2023-02-26T00:31:28;13.64;;;3.97;;
7169;SDS011;3626;42.656;23.312;2023-02-26T00:31:36;14.60;;;4.20;;
7169;SDS011;3626;42.656;23.312;2023-02-26T00:31:42;13.60;;;4.20;;
7169;SDS011;3626;42.656;23.312;2023-02-26T00:31:49;12.33;;;4.00;;
7169;SDS011;3626;42.656;23.312;2023-02-26T00:31:55;13.00;;;4.00;;
7169;SDS011;3626;42.656;23.312;2023-02-26T00:32:01;13.90;;;4.00;;
7169;SDS011;3626;42.656;23.312;2023-02-26T00:32:08;14.76;;;4.18;;
7169;SDS011;3626;42.656;23.312;2023-02-26T00:32:15;16.13;;;4.27;;
7169;SDS011;3626;42.656;23.312;2023-02-26T00:32:22;16.20;;;4.30;;
7169;SDS011;3626;42.656;23.312;2023-02-26T00:32:28;16.00;;;4.00;;
7169;SDS011;3626;42.656;23.312;2023-02-26T00:32:35;15.97;;;4.00;;
7169;SDS011;3626;42.656;23.312;2023-02-26T00:32:41;17.95;;;4.10;;
7169;SDS011;3626;42.656;23.312;2023-02-26T00:32:48;17.70;;;4.15;;
7169;SDS011;3626;42.656;23.312;2023-02-26T00:32:57;17.68;;;4.14;;
7169;SDS011;3626;42.656;23.312;2023-02-26T00:33:04;17.52;;;4.28;;
7169;SDS011;3626;42.656;23.312;2023-02-26T00:33:10;17.76;;;4.16;;
7169;SDS011;3626;42.656;23.312;2023-02-26T00:33:17;15.67;;;4.13;;
7169;SDS011;3626;42.656;23.312;2023-02-26T00:33:23;15.52;;;4.10;;
7169;SDS011;3626;42.656;23.312;2023-02-26T00:33:29;14.82;;;4.15;;
7169;SDS011;3626;42.656;23.312;2023-02-26T00:33:36;13.93;;;3.83;;
7169;SDS011;3626;42.656;23.312;2023-02-26T00:33:43;12.44;;;3.72;;
7169;SDS011;3626;42.656;23.312;2023-02-26T00:33:49;12.74;;;3.70;;
7169;SDS011;3626;42.656;23.312;2023-02-26T00:33:56;13.90;;;3.67;;
7169;SDS011;3626;42.656;23.312;2023-02-26T00:34:03;13.08;;;3.70;;
7169;SDS011;3626;42.656;23.312;2023-02-26T00:34:10;13.30;;;4.03;;
7169;SDS011;3626;42.656;23.312;2023-02-26T00:34:17;14.23;;;4.20;;
7169;SDS011;3626;42.656;23.312;2023-02-26T00:34:23;14.48;;;4.30;;
7169;SDS011;3626;42.656;23.312;2023-02-26T00:34:29;13.74;;;4.30;;
7169;SDS011;3626;42.656;23.312;2023-02-26T00:34:36;13.03;;;4.30;;
7169;SDS011;3626;42.656;23.312;2023-02-26T00:34:42;15.87;;;4.30;;
7169;SDS011;3626;42.656;23.312;2023-02-26T00:34:49;16.15;;;4.15;;
7169;SDS011;3626;42.656;23.312;2023-02-26T00:34:57;14.63;;;4.10;;
7169;SDS011;3626;42.656;23.312;2023-02-26T00:35:03;15.13;;;4.07;;
7169;SDS011;3626;42.656;23.312;2023-02-26T00:35:11;14.10;;;3.72;;
7169;SDS011;3626;42.656;23.312;2023-02-26T00:35:19;12.97;;;3.37;;
7169;SDS011;3626;42.656;23.312;2023-02-26T00:35:25;13.82;;;3.50;;
7169;SDS011;3626;42.656;23.312;2023-02-26T00:35:32;14.76;;;3.50;;
7169;SDS011;3626;42.656;23.312;2023-02-26T00:35:38;16.14;;;3.66;;
7169;SDS011;3626;42.656;23.312;2023-02-26T00:35:45;15.07;;;3.70;;
7169;SDS011;3626;42.656;23.312;2023-02-26T00:35:51;14.90;;;3.85;;
7169;SDS011;3626;42.656;23.312;2023-02-26T00:36:02;15.67;;;4.07;;
7169;SDS011;3626;42.656;23.312;2023-02-26T00:36:19;17.33;;;4.69;;
7169;SDS011;3626;42.656;23.312;2023-02-26T00:36:28;17.31;;;5.06;;
7169;SDS011;3626;42.656;23.312;2023-02-26T00:36:44;15.49;;;4.95;;
7169;SDS011;3626;42.656;23.312;2023-02-26T00:36:58;14.25;;;4.82;;
7169;SDS011;3626;42.656;23.312;2023-02-26T00:37:22;13.40;;;4.28;;
7169;SDS011;3626;42.656;23.312;2023-02-26T00:37:57;12.02;;;3.51;;
7169;SDS011;3626;42.656;23.312;2023-02-26T00:38:07;11.73;;;3.65;;
7169;SDS011;3626;42.656;23.312;2023-02-26T00:38:15;9.77;;;4.00;;
7169;SDS011;3626;42.656;23.312;2023-02-26T00:38:21;9.93;;;4.00;;
7169;SDS011;3626;42.656;23.312;2023-02-26T00:38:28;9.80;;;4.06;;
7169;SDS011;3626;42.656;23.312;2023-02-26T00:38:36;10.24;;;4.24;;
7169;SDS011;3626;42.656;23.312;2023-02-26T00:38:50;9.70;;;4.20;;
7169;SDS011;3626;42.656;23.312;2023-02-26T00:39:08;10.51;;;4.11;;
7169;SDS011;3626;42.656;23.312;2023-02-26T00:39:31;11.90;;;3.96;;
7169;SDS011;3626;42.656;23.312;2023-02-26T00:39:45;12.43;;;3.69;;
7169;SDS011;3626;42.656;23.312;2023-02-26T00:39:58;11.85;;;3.54;;
7169;SDS011;3626;42.656;23.312;2023-02-26T00:40:13;10.55;;;3.36;;
7169;SDS011;3626;42.656;23.312;2023-02-26T00:40:28;9.46;;;3.25;;
7169;SDS011;3626;42.656;23.312;2023-02-26T00:40:40;8.85;;;3.25;;
7169;SDS011;3626;42.656;23.312;2023-02-26T00:40:49;11.26;;;3.41;;
7169;SDS011;3626;42.656;23.312;2023-02-26T00:40:58;14.01;;;3.59;;
7169;SDS011;3626;42.656;23.312;2023-02-26T00:41:06;14.70;;;3.70;;
7169;SDS011;3626;42.656;23.312;2023-02-26T00:41:13;15.30;;;3.70;;
7169;SDS011;3626;42.656;23.312;2023-02-26T00:41:20;15.90;;;3.90;;
7169;SDS011;3626;42.656;23.312;2023-02-26T00:41:26;17.47;;;3.93;;
7169;SDS011;3626;42.656;23.312;2023-02-26T00:41:33;16.90;;;3.94;;
7169;SDS011;3626;42.656;23.312;2023-02-26T00:41:40;16.78;;;4.06;;
7169;SDS011;3626;42.656;23.312;2023-02-26T00:41:47;15.00;;;3.90;;
7169;SDS011;3626;42.656;23.312;2023-02-26T00:41:53;12.25;;;4.10;;
7169;SDS011;3626;42.656;23.312;2023-02-26T00:41:59;11.18;;;4.20;;
7169;SDS011;3626;42.656;23.312;2023-02-26T00:42:05;11.27;;;4.20;;
7169;SDS011;3626;42.656;23.312;2023-02-26T00:42:12;10.88;;;4.08;;
7169;SDS011;3626;42.656;23.312;2023-02-26T00:42:19;10.06;;;3.90;;
7169;SDS011;3626;42.656;23.312;2023-02-26T00:42:25;9.45;;;3.90;;
7169;SDS011;3626;42.656;23.312;2023-02-26T00:42:31;10.93;;;3.93;;
7169;SDS011;3626;42.656;23.312;2023-02-26T00:42:38;11.34;;;3.80;;
7169;SDS011;3626;42.656;23.312;2023-02-26T00:42:44;12.50;;;4.10;;
7169;SDS011;3626;42.656;23.312;2023-02-26T00:42:51;14.03;;;4.07;;
7169;SDS011;3626;42.656;23.312;2023-02-26T00:42:58;14.30;;;3.83;;
7169;SDS011;3626;42.656;23.312;2023-02-26T00:43:04;14.80;;;3.70;;
7169;SDS011;3626;42.656;23.312;2023-02-26T00:43:13;14.62;;;3.60;;
7169;SDS011;3626;42.656;23.312;2023-02-26T00:43:21;16.63;;;3.67;;
7169;SDS011;3626;42.656;23.312;2023-02-26T00:43:28;15.13;;;3.70;;
7169;SDS011;3626;42.656;23.312;2023-02-26T00:43:34;16.33;;;3.90;;
7169;SDS011;3626;42.656;23.312;2023-02-26T00:43:41;15.67;;;3.60;;
7169;SDS011;3626;42.656;23.312;2023-02-26T00:43:47;14.53;;;3.60;;
7169;SDS011;3626;42.656;23.312;2023-02-26T00:43:53;14.05;;;3.55;;
7169;SDS011;3626;42.656;23.312;2023-02-26T00:43:59;14.27;;;3.50;;
7169;SDS011;3626;42.656;23.312;2023-02-26T00:44:06;14.10;;;3.63;;